Time;durP1;ratioP1;P1;durP2;ratioP2;P2;SDS_P1;SDS_P2;PMS_P1;PMS_P2;Temp;Humidity;BMP_temperature;BMP_pressure;BME280_temperature;BME280_humidity;BME280_pressure;Samples;Min_cycle;Max_cycle;Signal;HPM_P1;HPM_P2
2023/05/22 00:00:46;;;;;;;6.05;5.35;;;;;;;17.70;69.61;96363.44;10450162;28;20283;-30
2023/05/22 00:05:47;;;;;;;9.43;6.10;;;;;;;17.72;69.25;96359.19;10452535;28;20033;-29
2023/05/22 00:10:47;;;;;;;4.35;3.90;;;;;;;17.70;65.04;96355.84;10457248;28;20033;-29
2023/05/22 00:15:48;;;;;;;3.97;3.43;;;;;;;17.67;62.89;96359.22;10449563;28;20032;-29
2023/05/22 00:20:49;;;;;;;3.72;3.38;;;;;;;17.65;62.00;96363.44;10449903;28;20059;-29
2023/05/22 00:25:49;;;;;;;4.03;3.00;;;;;;;17.63;62.65;96374.41;10457291;28;20079;-28
2023/05/22 00:30:49;;;;;;;4.00;3.60;;;;;;;17.62;62.13;96367.66;10449170;28;20086;-29
2023/05/22 00:35:50;;;;;;;3.47;3.17;;;;;;;17.62;62.17;96355.00;10456920;28;20078;-28
2023/05/22 00:40:51;;;;;;;3.88;3.58;;;;;;;17.61;62.00;96350.78;10457449;28;20294;-29
2023/05/22 00:45:53;;;;;;;3.43;3.13;;;;;;;17.61;61.87;96358.38;10440807;28;20037;-29
2023/05/22 00:50:56;;;;;;;3.45;2.97;;;;;;;17.60;61.94;96356.72;10456811;28;20528;-29
2023/05/22 00:55:57;;;;;;;4.50;3.05;;;;;;;17.57;61.66;96347.44;10444648;28;20102;-28
2023/05/22 01:00:58;;;;;;;3.30;3.00;;;;;;;17.54;61.86;96344.06;10457135;28;20067;-29
2023/05/22 01:05:58;;;;;;;5.20;4.68;;;;;;;17.67;68.99;96348.25;10441243;28;20059;-28
2023/05/22 01:11:21;;;;;;;5.22;4.72;;;;;;;17.69;69.13;96351.63;10438750;28;20033;-29
2023/05/22 01:16:29;;;;;;;4.35;3.95;;;;;;;17.67;65.29;96350.78;10455229;28;20033;-29
2023/05/22 01:21:54;;;;;;;4.35;3.22;;;;;;;17.65;62.97;96352.50;10435678;28;20029;-29
2023/05/22 01:27:09;;;;;;;3.50;3.20;;;;;;;17.61;62.09;96349.13;10441656;28;20512;-28
2023/05/22 01:32:13;;;;;;;5.25;3.42;;;;;;;17.60;62.03;96349.13;10466608;28;20078;-29
2023/05/22 01:37:14;;;;;;;3.35;3.05;;;;;;;17.60;62.03;96354.19;10439423;28;20020;-29
2023/05/22 01:42:14;;;;;;;3.10;2.70;;;;;;;17.58;61.99;96349.09;10432790;28;20421;-29
2023/05/22 01:47:15;;;;;;;3.88;3.35;;;;;;;17.57;61.77;96354.19;10435939;28;20025;-29
2023/05/22 01:52:38;;;;;;;4.20;2.83;;;;;;;17.58;61.38;96366.81;10454821;28;20035;-29
2023/05/22 01:57:47;;;;;;;3.17;2.88;;;;;;;17.57;61.49;96349.13;10436157;28;20041;-28
2023/05/22 02:02:52;;;;;;;3.22;2.92;;;;;;;17.57;61.81;96354.19;10434494;28;20033;-29
2023/05/22 02:07:57;;;;;;;2.90;2.70;;;;;;;17.58;61.53;96360.94;10457333;28;20646;-29
2023/05/22 02:12:59;;;;;;;4.50;4.10;;;;;;;17.66;68.88;96356.69;10439193;28;20117;-29
2023/05/22 02:18:00;;;;;;;4.88;4.35;;;;;;;17.66;69.21;96346.56;10439705;28;20279;-28
2023/05/22 02:23:00;;;;;;;3.88;3.30;;;;;;;17.65;63.46;96347.44;10447046;28;20029;-28
2023/05/22 02:28:03;;;;;;;3.90;3.30;;;;;;;17.61;62.45;96343.19;10446836;28;20115;-29
2023/05/22 02:33:04;;;;;;;3.25;2.95;;;;;;;17.59;61.96;96343.19;10433460;28;20021;-28
2023/05/22 02:38:05;;;;;;;3.60;3.30;;;;;;;17.59;62.14;96342.38;10438436;28;20036;-28
2023/05/22 02:43:06;;;;;;;3.05;2.75;;;;;;;17.54;62.13;96333.94;10438228;28;20456;-28
2023/05/22 02:48:06;;;;;;;3.10;2.90;;;;;;;17.56;61.74;96333.09;10430765;28;20029;-29
2023/05/22 02:53:08;;;;;;;4.10;3.03;;;;;;;17.56;61.52;96325.50;10465414;28;20542;-29
2023/05/22 02:58:11;;;;;;;3.13;2.88;;;;;;;17.56;61.82;96332.28;10453487;28;20282;-29
2023/05/22 03:03:11;;;;;;;3.20;2.90;;;;;;;17.56;61.59;96328.03;10435100;28;20029;-29
2023/05/22 03:08:12;;;;;;;2.87;2.67;;;;;;;17.56;61.25;96337.31;10459681;28;20041;-28
2023/05/22 03:13:12;;;;;;;3.10;2.80;;;;;;;17.56;61.59;96337.31;10432735;28;20287;-28
2023/05/22 03:18:12;;;;;;;4.53;4.05;;;;;;;17.64;68.88;96333.91;10459616;28;20060;-29
2023/05/22 03:23:14;;;;;;;4.40;4.00;;;;;;;17.66;69.21;96331.38;10457754;28;20025;-29
2023/05/22 03:28:14;;;;;;;3.83;3.50;;;;;;;17.64;64.70;96330.53;10432527;28;20029;-28
2023/05/22 03:33:15;;;;;;;2.92;2.70;;;;;;;17.60;62.62;96328.88;10464739;28;20396;-29
2023/05/22 03:38:16;;;;;;;2.97;2.70;;;;;;;17.54;62.07;96326.34;10448741;28;20473;-29
2023/05/22 03:43:16;;;;;;;3.23;2.97;;;;;;;17.55;62.19;96325.50;10432107;28;20035;-28
2023/05/22 03:48:17;;;;;;;3.17;2.88;;;;;;;17.56;61.90;96329.75;10440884;28;20032;-28
2023/05/22 03:53:18;;;;;;;3.10;2.83;;;;;;;17.54;61.76;96329.72;10454085;28;20021;-28
2023/05/22 03:58:18;;;;;;;3.13;2.83;;;;;;;17.54;61.86;96327.19;10472129;28;20035;-29
2023/05/22 04:03:19;;;;;;;2.70;2.50;;;;;;;17.51;61.60;96318.78;10455501;28;20029;-29
2023/05/22 04:08:19;;;;;;;3.37;2.90;;;;;;;17.56;61.87;96332.28;10457893;28;20485;-29
2023/05/22 04:13:20;;;;;;;3.43;2.80;;;;;;;17.54;61.79;96331.41;10438240;28;20032;-28
2023/05/22 04:18:20;;;;;;;3.85;3.50;;;;;;;17.54;63.59;96333.94;10444818;28;20067;-29
2023/05/22 04:23:21;;;;;;;5.67;4.30;;;;;;;17.67;68.86;96345.72;10449817;28;20465;-28
2023/05/22 04:28:22;;;;;;;4.20;3.70;;;;;;;17.67;68.69;96340.66;10463914;28;20036;-29
2023/05/22 04:33:24;;;;;;;2.90;2.70;;;;;;;17.66;63.85;96347.41;10456243;28;20029;-29
2023/05/22 04:38:25;;;;;;;3.20;2.40;;;;;;;17.63;62.36;96354.16;10476602;28;20028;-29
2023/05/22 04:43:28;;;;;;;2.60;2.40;;;;;;;17.61;62.56;96363.44;10437849;28;20033;-28
2023/05/22 04:48:32;;;;;;;3.00;2.77;;;;;;;17.56;62.76;96350.81;10459950;28;20068;-29
2023/05/22 04:53:33;;;;;;;3.10;2.80;;;;;;;17.59;62.29;96370.22;10473746;28;21038;-29
2023/05/22 04:58:36;;;;;;;3.08;2.78;;;;;;;17.57;62.09;96371.91;10437777;28;20124;-29
2023/05/22 05:03:38;;;;;;;4.32;3.05;;;;;;;17.56;63.35;96362.63;10467386;28;20471;-29
2023/05/22 05:08:38;;;;;;;3.35;2.70;;;;;;;17.54;62.25;96370.22;10463829;28;20059;-29
2023/05/22 05:13:39;;;;;;;3.05;2.83;;;;;;;17.56;62.10;96365.16;10436555;28;20036;-28
2023/05/22 05:18:39;;;;;;;3.05;2.75;;;;;;;17.55;61.76;96371.06;10463913;28;20543;-28
2023/05/22 05:23:40;;;;;;;3.67;2.50;;;;;;;17.55;61.81;96360.94;10473174;28;20501;-29
2023/05/22 05:28:40;;;;;;;14.07;5.10;;;;;;;17.73;68.48;96371.03;10436292;28;20056;-28
2023/05/22 05:33:42;;;;;;;10.45;4.47;;;;;;;17.73;69.11;96371.03;10444302;28;20489;-29
2023/05/22 05:38:50;;;;;;;6.30;4.18;;;;;;;17.70;65.87;96365.97;10472155;28;20485;-29
2023/05/22 05:43:56;;;;;;;5.20;3.17;;;;;;;17.63;63.08;96365.16;10458655;28;20029;-29
2023/05/22 05:48:57;;;;;;;3.38;2.90;;;;;;;17.59;62.79;96362.63;10437791;28;20170;-29
2023/05/22 05:53:57;;;;;;;5.43;2.92;;;;;;;17.57;62.42;96369.38;10437080;28;20082;-29
2023/05/22 05:58:58;;;;;;;5.32;3.15;;;;;;;17.56;62.58;96375.28;10452558;28;20028;-29
2023/05/22 06:04:11;;;;;;;3.83;3.35;;;;;;;17.56;62.09;96372.75;10455773;28;20049;-29
2023/05/22 06:09:13;;;;;;;3.65;2.80;;;;;;;17.54;61.96;96379.50;10451082;28;20044;-28
2023/05/22 06:14:32;;;;;;;3.55;3.15;;;;;;;17.55;61.94;96381.19;10454185;28;20049;-28
2023/05/22 06:19:32;;;;;;;5.25;2.85;;;;;;;17.54;61.99;96379.50;10460889;28;20029;-28
2023/05/22 06:24:33;;;;;;;3.37;2.87;;;;;;;17.54;62.00;96384.56;10458718;28;20127;-29
2023/05/22 06:29:39;;;;;;;3.90;2.78;;;;;;;17.52;61.98;96386.25;10451368;28;20029;-29
2023/05/22 06:34:43;;;;;;;5.97;4.68;;;;;;;17.65;68.46;96380.34;10435283;28;20143;-29
2023/05/22 06:39:43;;;;;;;5.97;4.70;;;;;;;17.68;68.58;96385.38;10443731;28;20033;-28
2023/05/22 06:44:47;;;;;;;6.45;4.35;;;;;;;17.67;67.23;96383.69;10452466;28;20082;-29
2023/05/22 06:49:47;;;;;;;3.05;2.78;;;;;;;17.62;62.92;96380.31;10448072;28;20050;-27
2023/05/22 06:54:49;;;;;;;3.63;2.63;;;;;;;17.59;62.53;96378.63;10443243;28;20028;-28
2023/05/22 06:59:49;;;;;;;3.13;2.83;;;;;;;17.59;62.18;96382.88;10433635;28;20032;-28
2023/05/22 07:05:16;;;;;;;4.80;3.20;;;;;;;17.56;62.17;96382.88;10459435;28;20496;-29
2023/05/22 07:10:26;;;;;;;3.03;2.75;;;;;;;17.54;62.66;96385.41;10442086;28;20458;-29
2023/05/22 07:15:26;;;;;;;4.28;2.90;;;;;;;17.54;62.10;96387.09;10457758;28;20528;-29
2023/05/22 07:20:30;;;;;;;3.10;2.80;;;;;;;17.50;62.05;96377.84;10448321;28;20041;-28
2023/05/22 07:25:41;;;;;;;3.47;3.13;;;;;;;17.54;61.88;96382.03;10441954;28;20064;-28
2023/05/22 07:30:42;;;;;;;2.72;2.53;;;;;;;17.54;61.81;96384.56;10450730;28;20118;-29
2023/05/22 07:35:44;;;;;;;2.90;2.50;;;;;;;17.54;61.68;96382.03;10458361;28;20117;-28
2023/05/22 07:40:45;;;;;;;4.55;4.07;;;;;;;17.65;67.54;96385.41;10433333;28;20045;-29
2023/05/22 07:45:45;;;;;;;5.47;4.03;;;;;;;17.70;68.38;96378.63;10436192;28;20067;-28
2023/05/22 07:50:48;;;;;;;4.30;3.25;;;;;;;17.66;66.34;96364.28;10432286;28;20027;-29
2023/05/22 07:55:49;;;;;;;3.35;2.72;;;;;;;17.62;63.13;96377.78;10458218;28;20100;-28
2023/05/22 08:00:50;;;;;;;3.28;2.70;;;;;;;17.59;62.46;96371.03;10434984;28;20064;-29
2023/05/22 08:05:50;;;;;;;3.13;2.83;;;;;;;17.57;62.08;96374.44;10449463;28;20056;-29
2023/05/22 08:10:52;;;;;;;2.70;2.50;;;;;;;17.57;62.32;96376.97;10466789;28;20036;-29
2023/05/22 08:15:52;;;;;;;3.03;2.72;;;;;;;17.53;62.00;96377.81;10450558;28;20112;-28
2023/05/22 08:20:53;;;;;;;3.55;2.97;;;;;;;17.55;62.25;96376.13;10449590;28;20025;-29
2023/05/22 08:25:53;;;;;;;2.40;2.20;;;;;;;17.52;61.79;96368.53;10449232;28;20075;-29
2023/05/22 08:30:54;;;;;;;2.73;2.53;;;;;;;17.55;62.19;96371.06;10449249;28;20488;-29
2023/05/22 08:35:54;;;;;;;3.13;2.80;;;;;;;17.54;61.84;96364.31;10461591;28;20032;-29
2023/05/22 08:40:56;;;;;;;2.40;2.17;;;;;;;17.54;61.95;96364.31;10450252;28;20028;-29
2023/05/22 08:46:05;;;;;;;4.00;3.35;;;;;;;17.65;67.31;96367.69;10458060;28;20419;-28
2023/05/22 08:51:06;;;;;;;4.50;3.97;;;;;;;17.70;67.80;96365.97;10452146;28;20036;-29
2023/05/22 08:56:07;;;;;;;4.05;3.65;;;;;;;17.73;67.41;96376.09;10466173;28;20032;-29
2023/05/22 09:01:08;;;;;;;3.42;2.85;;;;;;;17.65;63.44;96367.69;10448617;28;20044;-28
2023/05/22 09:06:10;;;;;;;5.15;2.88;;;;;;;17.59;62.42;96363.44;10450196;28;20051;-29
2023/05/22 09:11:11;;;;;;;2.58;2.38;;;;;;;17.59;62.33;96365.16;10456908;28;20113;-29
2023/05/22 09:16:12;;;;;;;3.10;2.80;;;;;;;17.58;62.16;96371.06;10464488;28;20029;-28
2023/05/22 09:21:16;;;;;;;2.80;2.60;;;;;;;17.56;62.23;96368.53;10464020;28;20086;-28
2023/05/22 09:26:16;;;;;;;2.45;2.25;;;;;;;17.55;62.51;96366.84;10481141;28;20090;-28
2023/05/22 09:31:16;;;;;;;3.60;3.30;;;;;;;17.56;62.01;96367.69;10459502;28;20066;-28
2023/05/22 09:36:17;;;;;;;3.10;2.63;;;;;;;17.56;62.18;96366.00;10464295;28;20039;-28
2023/05/22 09:41:21;;;;;;;2.97;2.50;;;;;;;17.55;62.29;96363.47;10456395;28;20378;-28
2023/05/22 09:46:21;;;;;;;4.00;2.83;;;;;;;17.55;62.35;96360.94;10463114;28;20056;-28
2023/05/22 09:51:26;;;;;;;6.00;3.90;;;;;;;17.62;67.10;96352.47;10454610;28;20057;-29
2023/05/22 09:56:27;;;;;;;4.43;3.67;;;;;;;17.71;67.82;96352.44;10462593;28;20020;-28
2023/05/22 10:01:28;;;;;;;4.90;4.32;;;;;;;17.72;67.83;96352.47;10466061;28;20497;-29
2023/05/22 10:06:30;;;;;;;2.83;2.63;;;;;;;17.66;64.00;96352.47;10455044;28;20116;-29
2023/05/22 10:11:32;;;;;;;3.00;2.40;;;;;;;17.62;62.76;96352.47;10461445;28;20033;-28
2023/05/22 10:16:37;;;;;;;2.75;2.55;;;;;;;17.59;62.59;96353.31;10453737;28;20029;-29
2023/05/22 10:21:40;;;;;;;2.55;2.35;;;;;;;17.58;62.57;96358.41;10454043;28;20028;-29
2023/05/22 10:26:42;;;;;;;3.53;3.22;;;;;;;17.57;62.40;96359.25;10459455;28;20049;-28
2023/05/22 10:32:00;;;;;;;3.35;2.63;;;;;;;17.57;62.32;96356.72;10476415;28;20043;-28
2023/05/22 10:37:21;;;;;;;2.83;2.63;;;;;;;17.56;62.24;96353.34;10438473;28;20025;-29
2023/05/22 10:42:22;;;;;;;3.55;3.15;;;;;;;17.56;62.78;96353.34;10452493;28;20060;-29
2023/05/22 10:47:22;;;;;;;2.67;2.47;;;;;;;17.62;62.68;96348.28;10463394;28;20484;-28
2023/05/22 10:52:23;;;;;;;3.42;3.13;;;;;;;17.68;62.21;96352.47;10450959;28;20321;-29
2023/05/22 10:57:23;;;;;;;4.17;3.77;;;;;;;17.71;64.27;96340.66;10458128;28;20116;-28
2023/05/22 11:02:29;;;;;;;4.40;4.00;;;;;;;17.74;67.76;96319.56;10458956;28;20044;-28
2023/05/22 11:07:40;;;;;;;4.50;4.10;;;;;;;17.80;64.29;96347.34;10458953;28;20431;-29
2023/05/22 11:12:40;;;;;;;2.97;2.72;;;;;;;17.75;62.78;96370.16;10455770;28;20345;-29
2023/05/22 11:17:45;;;;;;;3.30;3.00;;;;;;;17.75;62.33;96387.06;10467703;28;20462;-27
2023/05/22 11:22:55;;;;;;;3.00;2.70;;;;;;;17.74;61.97;96375.25;10470699;28;20061;-27
2023/05/22 11:27:57;;;;;;;2.75;2.55;;;;;;;17.76;62.08;96386.22;10459707;28;20539;-27
2023/05/22 11:32:58;;;;;;;3.47;2.70;;;;;;;17.75;61.95;96384.53;10462218;28;20467;-27
2023/05/22 11:38:03;;;;;;;3.08;2.83;;;;;;;17.75;61.98;96394.66;10459482;28;20036;-27
2023/05/22 11:43:04;;;;;;;2.80;2.60;;;;;;;17.76;61.96;96403.94;10463248;28;20032;-26
2023/05/22 11:48:06;;;;;;;2.97;2.50;;;;;;;17.75;61.96;96404.78;10474013;28;20029;-26
2023/05/22 11:53:07;;;;;;;3.55;3.25;;;;;;;17.75;62.12;96405.59;10475696;28;20396;-27
2023/05/22 11:58:08;;;;;;;3.88;2.95;;;;;;;17.74;61.93;96400.56;10459886;28;20056;-27
2023/05/22 12:03:09;;;;;;;8.70;5.23;;;;;;;17.78;65.29;96404.75;10468115;28;20615;-27
2023/05/22 12:08:09;;;;;;;5.93;5.23;;;;;;;17.90;66.81;96403.03;10456658;28;20295;-26
2023/05/22 12:13:09;;;;;;;19.37;6.20;;;;;;;17.90;68.08;96407.28;10447553;28;20025;-26
2023/05/22 12:18:10;;;;;;;4.80;3.33;;;;;;;17.80;62.92;96403.91;10467432;28;20298;-27
2023/05/22 12:23:21;;;;;;;4.63;3.40;;;;;;;17.81;62.04;96399.69;10461440;28;20043;-28
2023/05/22 12:28:21;;;;;;;4.45;3.50;;;;;;;17.77;62.34;96382.81;10449635;28;20055;-27
2023/05/22 12:33:28;;;;;;;5.87;3.30;;;;;;;17.74;62.28;96375.25;10449543;28;20052;-27
2023/05/22 12:38:30;;;;;;;8.80;3.47;;;;;;;17.74;62.22;96375.25;10463776;28;20075;-26
2023/05/22 12:43:30;;;;;;;4.93;3.78;;;;;;;17.74;62.27;96380.31;10456389;28;20037;-27
2023/05/22 12:48:31;;;;;;;4.72;3.35;;;;;;;17.73;61.97;96371.03;10471741;28;20090;-26
2023/05/22 12:53:31;;;;;;;4.87;3.30;;;;;;;17.72;62.22;96370.19;10468672;28;20163;-26
2023/05/22 12:58:31;;;;;;;5.30;3.50;;;;;;;17.73;62.08;96360.91;10464738;28;20048;-27
2023/05/22 13:03:32;;;;;;;4.20;3.17;;;;;;;17.72;62.14;96356.66;10471815;28;20294;-26
2023/05/22 13:08:32;;;;;;;5.10;4.37;;;;;;;17.74;63.64;96344.88;10465172;28;20615;-26
2023/05/22 13:13:32;;;;;;;10.50;5.20;;;;;;;17.86;68.48;96339.75;10472403;28;20515;-26
2023/05/22 13:18:33;;;;;;;8.80;5.37;;;;;;;17.90;68.06;96338.91;10458252;28;20041;-25
2023/05/22 13:23:33;;;;;;;3.67;3.37;;;;;;;17.83;63.14;96332.16;10459691;28;20381;-26
2023/05/22 13:28:33;;;;;;;4.50;3.60;;;;;;;17.78;62.30;96323.75;10469907;28;20489;-26
2023/05/22 13:33:34;;;;;;;13.50;3.93;;;;;;;17.76;62.19;96326.25;10457227;28;20622;-26
2023/05/22 13:38:34;;;;;;;3.10;2.80;;;;;;;17.73;62.02;96325.47;10460755;28;20054;-27
2023/05/22 13:43:35;;;;;;;3.40;2.90;;;;;;;17.72;61.98;96314.47;10478008;28;20493;-26
2023/05/22 13:48:35;;;;;;;3.50;3.13;;;;;;;17.74;62.20;96314.47;10460052;28;20035;-26
2023/05/22 13:53:37;;;;;;;3.53;3.20;;;;;;;17.73;61.88;96310.28;10467711;28;20039;-26
2023/05/22 13:58:37;;;;;;;3.55;3.25;;;;;;;17.72;62.15;96308.56;10466318;28;20032;-27
2023/05/22 14:03:40;;;;;;;3.67;3.37;;;;;;;17.74;62.13;96311.94;10465860;28;20501;-26
2023/05/22 14:08:40;;;;;;;4.13;3.58;;;;;;;17.72;61.96;96309.41;10472352;28;20296;-26
2023/05/22 14:13:42;;;;;;;6.47;5.80;;;;;;;17.76;65.19;96305.19;10476143;28;20033;-26
2023/05/22 14:18:42;;;;;;;5.10;4.60;;;;;;;17.92;66.86;96302.56;10458640;28;20037;-27
2023/05/22 14:23:42;;;;;;;6.17;4.47;;;;;;;17.97;65.91;96300.00;10454121;28;20037;-27
2023/05/22 14:28:43;;;;;;;4.33;3.60;;;;;;;17.87;63.03;96301.75;10455827;28;20094;-27
2023/05/22 14:33:43;;;;;;;3.53;3.23;;;;;;;17.81;62.13;96294.19;10449307;28;20033;-27
2023/05/22 14:38:43;;;;;;;4.87;3.33;;;;;;;17.80;62.27;96294.19;10456954;28;20039;-26
2023/05/22 14:43:44;;;;;;;6.13;4.00;;;;;;;17.76;62.27;96295.06;10452260;28;20097;-26
2023/05/22 14:48:44;;;;;;;4.75;3.47;;;;;;;17.75;62.44;96298.44;10437414;28;20513;-27
2023/05/22 14:53:44;;;;;;;4.17;3.50;;;;;;;17.75;62.19;96303.50;10452126;28;20513;-27
2023/05/22 14:58:45;;;;;;;3.25;2.90;;;;;;;17.74;62.60;96297.59;10451634;28;20026;-26
2023/05/22 15:03:45;;;;;;;3.80;3.47;;;;;;;17.73;62.47;96285.78;10453240;28;20067;-26
2023/05/22 15:08:46;;;;;;;3.88;3.50;;;;;;;17.74;62.43;96276.50;10452704;28;20036;-26
2023/05/22 15:13:46;;;;;;;3.50;3.20;;;;;;;17.73;62.42;96279.91;10451235;28;20066;-26
2023/05/22 15:18:47;;;;;;;7.47;5.82;;;;;;;17.76;65.02;96284.94;10455915;28;20487;-26
2023/05/22 15:23:47;;;;;;;5.13;4.63;;;;;;;17.92;66.30;96284.03;10452581;28;20032;-27
2023/05/22 15:28:47;;;;;;;8.13;6.13;;;;;;;17.98;67.45;96287.34;10455198;28;20450;-27
2023/05/22 15:33:48;;;;;;;4.70;4.30;;;;;;;17.90;63.90;96285.72;10450534;28;20279;-26
2023/05/22 15:38:48;;;;;;;3.70;3.40;;;;;;;17.84;62.66;96280.69;10457984;28;20047;-27
2023/05/22 15:43:51;;;;;;;5.55;3.70;;;;;;;17.80;62.56;96286.59;10460292;28;20512;-27
2023/05/22 15:48:53;;;;;;;4.97;3.60;;;;;;;17.77;63.08;96276.47;10458808;28;20432;-26
2023/05/22 15:53:53;;;;;;;4.35;3.92;;;;;;;17.77;63.27;96261.28;10456620;28;20096;-27
2023/05/22 15:58:53;;;;;;;4.63;4.00;;;;;;;17.81;63.16;96265.47;10452858;28;20487;-26
2023/05/22 16:03:54;;;;;;;3.92;3.63;;;;;;;17.85;62.50;96267.16;10449737;28;20415;-27
2023/05/22 16:08:54;;;;;;;4.22;3.63;;;;;;;17.86;62.26;96273.91;10462346;28;20036;-27
2023/05/22 16:13:55;;;;;;;6.10;5.10;;;;;;;17.88;64.32;96274.72;10463404;28;20070;-26
2023/05/22 16:18:55;;;;;;;4.57;4.17;;;;;;;17.85;63.51;96279.81;10454659;28;20302;-26
2023/05/22 16:23:56;;;;;;;4.63;4.20;;;;;;;17.84;63.05;96276.44;10461505;28;20071;-27
2023/05/22 16:28:56;;;;;;;6.70;4.97;;;;;;;18.00;67.09;96277.22;10467053;28;20118;-29
2023/05/22 16:33:57;;;;;;;7.23;5.27;;;;;;;18.04;67.26;96271.28;10469148;28;20134;-28
2023/05/22 16:38:57;;;;;;;5.80;5.13;;;;;;;17.96;64.42;96275.53;10440545;28;20103;-27
2023/05/22 16:43:57;;;;;;;4.50;4.03;;;;;;;17.88;62.96;96268.00;10434179;28;20040;-27
2023/05/22 16:48:58;;;;;;;4.40;4.00;;;;;;;17.85;62.75;96277.28;10436400;28;20309;-29
2023/05/22 16:53:58;;;;;;;4.25;3.85;;;;;;;17.83;63.15;96282.34;10444007;28;20025;-29
2023/05/22 16:58:59;;;;;;;4.13;3.72;;;;;;;17.83;62.94;96284.06;10453797;28;20542;-29
2023/05/22 17:04:00;;;;;;;5.38;4.10;;;;;;;17.82;62.88;96295.03;10470285;28;20495;-29
2023/05/22 17:09:00;;;;;;;6.63;4.60;;;;;;;17.80;62.86;96294.19;10460738;28;20032;-29
2023/05/22 17:14:00;;;;;;;4.87;3.63;;;;;;;17.79;63.03;96307.69;10472372;28;20078;-29
2023/05/22 17:19:01;;;;;;;4.38;3.95;;;;;;;17.77;62.83;96299.28;10454548;28;20059;-28
2023/05/22 17:24:01;;;;;;;4.40;3.60;;;;;;;17.76;62.67;96310.25;10456660;28;20037;-29
2023/05/22 17:29:01;;;;;;;4.37;3.90;;;;;;;17.77;62.95;96306.88;10454785;28;20049;-26
2023/05/22 17:34:03;;;;;;;6.63;5.10;;;;;;;17.94;66.43;96311.03;10457518;28;20104;-26
2023/05/22 17:39:03;;;;;;;7.93;6.13;;;;;;;18.02;68.75;96313.50;10455473;28;20568;-27
2023/05/22 17:44:04;;;;;;;12.43;4.90;;;;;;;17.94;64.57;96320.31;10458822;28;20025;-27
2023/05/22 17:49:04;;;;;;;6.57;4.27;;;;;;;17.86;62.98;96325.41;10461057;28;20025;-27
2023/05/22 17:54:06;;;;;;;4.63;3.60;;;;;;;17.83;63.09;96327.09;10455496;28;20029;-28
2023/05/22 17:59:07;;;;;;;9.23;4.50;;;;;;;17.79;62.86;96330.47;10458739;28;20033;-27
2023/05/22 18:04:07;;;;;;;5.67;4.00;;;;;;;17.80;62.65;96340.63;10461339;28;20033;-27
2023/05/22 18:09:08;;;;;;;8.90;3.90;;;;;;;17.79;62.73;96345.69;10461507;28;20314;-28
2023/05/22 18:14:09;;;;;;;4.30;3.65;;;;;;;17.77;62.58;96337.25;10457547;28;20029;-28
2023/05/22 18:19:09;;;;;;;4.53;4.13;;;;;;;17.78;62.74;96356.66;10431255;28;20041;-28
2023/05/22 18:24:11;;;;;;;4.07;3.65;;;;;;;17.79;62.48;96351.59;10458745;28;20299;-28
2023/05/22 18:29:12;;;;;;;4.25;3.72;;;;;;;17.77;62.01;96358.38;10457291;28;20037;-28
2023/05/22 18:34:12;;;;;;;7.93;6.13;;;;;;;17.80;66.24;96360.00;10463248;28;20082;-28
2023/05/22 18:39:13;;;;;;;9.80;5.60;;;;;;;18.00;69.54;96373.47;10447740;28;20029;-28
2023/05/22 18:44:14;;;;;;;6.07;5.47;;;;;;;18.03;66.44;96366.72;10448108;28;20039;-28
2023/05/22 18:49:14;;;;;;;4.23;3.83;;;;;;;17.92;64.28;96377.72;10448057;28;20396;-29
2023/05/22 18:54:14;;;;;;;4.38;3.97;;;;;;;17.86;63.30;96385.31;10455084;28;20295;-28
2023/05/22 18:59:15;;;;;;;11.37;4.83;;;;;;;17.83;63.47;96377.75;10447889;28;20204;-28
2023/05/22 19:04:16;;;;;;;4.47;4.00;;;;;;;17.85;62.92;96384.50;10451498;28;20288;-28
2023/05/22 19:09:16;;;;;;;8.48;3.38;;;;;;;17.89;62.88;96397.97;10455395;28;20033;-27
2023/05/22 19:14:16;;;;;;;5.13;3.93;;;;;;;17.80;62.41;96383.66;10475303;28;20039;-27
2023/05/22 19:19:17;;;;;;;5.03;3.83;;;;;;;17.85;62.72;96392.09;10451103;28;20033;-28
2023/05/22 19:24:17;;;;;;;8.47;3.50;;;;;;;17.84;62.91;96400.50;10456242;28;20036;-28
2023/05/22 19:29:17;;;;;;;4.30;3.63;;;;;;;17.83;62.63;96408.13;10456980;28;20036;-28
2023/05/22 19:34:18;;;;;;;4.57;4.13;;;;;;;17.81;63.29;96410.66;10462319;28;20321;-28
2023/05/22 19:39:18;;;;;;;10.63;5.37;;;;;;;17.87;66.20;96427.53;10447601;28;20041;-27
2023/05/22 19:44:19;;;;;;;6.27;5.47;;;;;;;18.03;67.85;96429.19;10454302;28;20086;-28
2023/05/22 19:49:19;;;;;;;6.75;4.88;;;;;;;18.07;67.52;96449.44;10446911;28;20115;-28
2023/05/22 19:54:20;;;;;;;10.20;4.30;;;;;;;17.97;64.23;96462.09;10447287;28;20036;-27
2023/05/22 19:59:20;;;;;;;7.40;4.10;;;;;;;17.89;63.03;96469.75;10453731;28;20361;-28
2023/05/22 20:04:21;;;;;;;4.80;3.63;;;;;;;17.85;62.91;96470.59;10454425;28;20505;-28
2023/05/22 20:09:21;;;;;;;4.28;3.50;;;;;;;17.81;62.94;96475.66;10445846;28;20041;-28
2023/05/22 20:14:21;;;;;;;5.90;3.53;;;;;;;17.80;62.83;96479.03;10445736;28;20486;-28
2023/05/22 20:19:23;;;;;;;4.17;3.17;;;;;;;17.78;62.66;96465.53;10452491;28;20029;-28
2023/05/22 20:24:24;;;;;;;5.22;3.47;;;;;;;17.76;62.46;96467.22;10445544;28;20088;-28
2023/05/22 20:29:24;;;;;;;6.30;3.53;;;;;;;17.75;62.19;96471.44;10443160;28;20698;-28
2023/05/22 20:34:25;;;;;;;3.72;3.33;;;;;;;17.72;62.25;96463.84;10452888;28;20158;-28
2023/05/22 20:39:25;;;;;;;9.32;5.60;;;;;;;17.72;64.74;96470.59;10475519;28;20040;-28
2023/05/22 20:44:26;;;;;;;6.60;4.23;;;;;;;17.75;62.98;96484.09;10486114;28;20029;-27
2023/05/22 20:49:26;;;;;;;6.27;4.70;;;;;;;17.98;70.14;96484.09;10474978;28;20040;-28
2023/05/22 20:54:33;;;;;;;8.40;5.85;;;;;;;18.06;69.88;96487.41;10482971;28;20040;-29
2023/05/22 20:59:36;;;;;;;5.93;3.72;;;;;;;17.97;66.37;96483.22;10479020;28;20033;-27
2023/05/22 21:04:36;;;;;;;5.32;3.83;;;;;;;17.85;63.62;96488.34;10485537;28;20493;-28
2023/05/22 21:09:36;;;;;;;4.37;3.13;;;;;;;17.80;62.74;96496.75;10462822;28;20094;-29
2023/05/22 21:14:37;;;;;;;4.17;3.77;;;;;;;17.77;62.89;96500.16;10462709;28;20024;-28
2023/05/22 21:19:37;;;;;;;3.13;2.83;;;;;;;17.75;62.68;96509.41;10460986;28;20036;-28
2023/05/22 21:24:40;;;;;;;4.73;3.30;;;;;;;17.80;63.04;96524.59;10457048;28;20037;-29
2023/05/22 21:29:40;;;;;;;3.42;3.10;;;;;;;17.86;62.68;96539.81;10463345;28;20078;-28
2023/05/22 21:34:41;;;;;;;4.07;3.40;;;;;;;17.87;62.59;96536.44;10455592;28;20032;-28
2023/05/22 21:39:41;;;;;;;6.27;3.23;;;;;;;17.88;62.41;96533.91;10464949;28;20052;-28
2023/05/22 21:44:41;;;;;;;4.83;3.50;;;;;;;17.91;62.16;96548.25;10457091;28;20051;-29
2023/05/22 21:49:42;;;;;;;3.50;3.20;;;;;;;17.90;61.85;96544.03;10461947;28;20037;-29
2023/05/22 21:54:42;;;;;;;5.03;4.53;;;;;;;18.03;65.67;96543.16;10456570;28;20120;-27
2023/05/22 21:59:42;;;;;;;9.07;5.97;;;;;;;18.11;70.22;96546.53;10460102;28;20040;-29
2023/05/22 22:04:43;;;;;;;3.00;2.63;;;;;;;18.04;63.79;96547.38;10454165;28;20299;-28
2023/05/22 22:09:43;;;;;;;4.73;2.80;;;;;;;17.96;62.03;96549.06;10462250;28;20327;-28
2023/05/22 22:14:43;;;;;;;4.07;2.87;;;;;;;17.95;62.01;96560.91;10450245;28;20108;-28
2023/05/22 22:19:44;;;;;;;4.50;3.10;;;;;;;17.92;62.03;96565.97;10452180;28;20382;-28
2023/05/22 22:24:44;;;;;;;3.50;3.20;;;;;;;17.92;61.95;96580.34;10452878;28;20041;-28
2023/05/22 22:29:45;;;;;;;3.27;2.93;;;;;;;17.90;61.78;96575.25;10451231;28;20045;-28
2023/05/22 22:34:45;;;;;;;4.35;2.80;;;;;;;17.86;61.93;96570.19;10459185;28;20122;-28
2023/05/22 22:39:46;;;;;;;3.38;3.08;;;;;;;17.88;61.93;96584.56;10434343;28;20532;-28
2023/05/22 22:44:47;;;;;;;4.63;2.90;;;;;;;17.88;61.62;96576.94;10450875;28;20523;-27
2023/05/22 22:49:48;;;;;;;4.53;3.20;;;;;;;17.86;61.77;96580.31;10456020;28;20033;-29
2023/05/22 22:54:48;;;;;;;3.67;2.92;;;;;;;17.86;61.59;96570.19;10452399;28;20032;-27
2023/05/22 22:59:49;;;;;;;4.97;4.33;;;;;;;17.98;66.69;96575.28;10452123;28;20036;-29
2023/05/22 23:04:52;;;;;;;5.47;4.23;;;;;;;18.08;70.37;96571.88;10456288;28;20302;-28
2023/05/22 23:09:52;;;;;;;7.07;3.85;;;;;;;18.05;65.45;96585.38;10410704;28;1182589;-28
2023/05/22 23:14:52;;;;;;;3.17;2.77;;;;;;;17.97;62.39;96588.75;10452013;28;20024;-28
2023/05/22 23:19:53;;;;;;;4.03;3.00;;;;;;;17.92;61.83;96590.47;10451943;28;20493;-28